Aeroporto :
LOGIN :

Iscrizione | Disclaimer

   EN    FR    IT 

 










Sommario :    VFR   VFR Marginale   IFR   IFR Intensivo   IFR Molto Intensivo
Visibilità : 
Base nubi : 
>= 8 km
>= 3000ft
5 / 8 km
1000 / 3000 ft
1500m / 5 km
500 / 1000 ft
800 / 1500m
200 / 500 ft
< 800m
< 200 ft
Simboli :   Temporali  Nebbia  Neve Forte  Precipitazioni Forti  Vento > 20 kt
SIGMETs :   Varie  Temporali  Ghiacco  Turbolenza  Onda orograficha  Ceneri Vulcaniche






- Altitudine del aeroporto : 268 ft
- Codice IATA : BFS


EGAA - Belfast Aldergrove

ULTIMO METAR :
  • 240650Z 19010KT 9999 SCT022 BKN043 10/09 Q1006

METARs OBSOLETI :
  • 240620Z 19010KT 9999 FEW018 BKN030 10/09 Q1006
  • 240550Z 20007KT 170V240 9999 FEW006 BKN013 10/10 Q1007
  • 240520Z 22007KT 6000 -RA SCT006 BKN010 10/10 Q1007 RERA
  • 240450Z 24004KT 5000 RA SCT003 BKN010 10/10 Q1007 REDZ
  • 240420Z 23008KT 4000 DZRA SCT003 BKN006 10/10 Q1007

TAF TAF EGAA
Valido dal 24 a 06 ore il 25 a 06 ore UTC


240501Z 2406/2506 20012KT 9999 SCT007 BKN020
TEMPO 2406/2409 20016G26KT 3000 RADZ BKN003
TEMPO 2409/2417 6000 RA -RADZ BKN007
BECMG 2410/2413 31010KT
PROB40
TEMPO 2411/2416 3000 RADZ BKN004
BECMG 2415/2418 23007KT
TEMPO 2418/2506 BKN006
PROB30 2500/2506 0500 FG BKN000



MetMap, La meteo Aeronautica in un colpo d'occhio ! - Copyright ORBIFLY Dicembre 2007 - Disclaimer

ORBIFLY MET'MAP TEAM :

Programmazione e sviluppo : Alexandra Zaïnal
Concezione : Baudouin d'Aumeries
Aiuto per la programmazione : Marc-Olivier Méhu
Supporto tecnico e logistico : Manuel Goepfert
Aiuto per la traduzione : Arnaldo La Scala

Contatto : metmap@orbifly.com




FONTI E CREDITI :

   NOAA